sensor_id;sensor_type;location;lat;lon;timestamp;P1;durP1;ratioP1;P2;durP2;ratioP2
48767;SDS011;34933;40.968;14.538;2023-08-20T00:02:31;18.23;;;15.05;;
48767;SDS011;34933;40.968;14.538;2023-08-20T00:05:17;17.85;;;16.02;;
48767;SDS011;34933;40.968;14.538;2023-08-20T00:08:03;18.33;;;16.45;;
48767;SDS011;34933;40.968;14.538;2023-08-20T00:10:48;18.73;;;16.50;;
48767;SDS011;34933;40.968;14.538;2023-08-20T00:13:33;18.92;;;15.35;;
48767;SDS011;34933;40.968;14.538;2023-08-20T00:16:17;22.02;;;18.05;;
48767;SDS011;34933;40.968;14.538;2023-08-20T00:19:02;18.38;;;16.40;;
48767;SDS011;34933;40.968;14.538;2023-08-20T00:21:48;17.63;;;15.80;;
48767;SDS011;34933;40.968;14.538;2023-08-20T00:24:33;17.88;;;16.38;;
48767;SDS011;34933;40.968;14.538;2023-08-20T00:27:18;17.20;;;15.60;;
48767;SDS011;34933;40.968;14.538;2023-08-20T00:30:02;20.70;;;16.80;;
48767;SDS011;34933;40.968;14.538;2023-08-20T00:32:47;22.63;;;17.05;;
48767;SDS011;34933;40.968;14.538;2023-08-20T00:35:32;17.20;;;15.60;;
48767;SDS011;34933;40.968;14.538;2023-08-20T00:38:17;18.08;;;16.40;;
48767;SDS011;34933;40.968;14.538;2023-08-20T00:41:02;18.88;;;16.98;;
48767;SDS011;34933;40.968;14.538;2023-08-20T00:43:46;17.30;;;15.65;;
48767;SDS011;34933;40.968;14.538;2023-08-20T00:46:31;17.60;;;14.77;;
48767;SDS011;34933;40.968;14.538;2023-08-20T00:49:16;15.60;;;14.20;;
48767;SDS011;34933;40.968;14.538;2023-08-20T00:52:01;17.17;;;15.55;;
48767;SDS011;34933;40.968;14.538;2023-08-20T00:54:49;18.02;;;16.25;;
48767;SDS011;34933;40.968;14.538;2023-08-20T00:57:34;19.42;;;16.25;;
48767;SDS011;34933;40.968;14.538;2023-08-20T01:00:21;17.45;;;15.70;;
48767;SDS011;34933;40.968;14.538;2023-08-20T01:03:07;18.23;;;15.60;;
48767;SDS011;34933;40.968;14.538;2023-08-20T01:05:53;16.65;;;14.98;;
48767;SDS011;34933;40.968;14.538;2023-08-20T01:08:43;18.13;;;14.97;;
48767;SDS011;34933;40.968;14.538;2023-08-20T01:11:33;17.50;;;15.73;;
48767;SDS011;34933;40.968;14.538;2023-08-20T01:14:23;17.52;;;15.77;;
48767;SDS011;34933;40.968;14.538;2023-08-20T01:17:08;18.98;;;17.08;;
48767;SDS011;34933;40.968;14.538;2023-08-20T01:19:52;19.27;;;17.45;;
48767;SDS011;34933;40.968;14.538;2023-08-20T01:28:46;16.23;;;14.55;;
48767;SDS011;34933;40.968;14.538;2023-08-20T01:31:32;17.33;;;15.15;;
48767;SDS011;34933;40.968;14.538;2023-08-20T01:34:17;15.75;;;14.27;;
48767;SDS011;34933;40.968;14.538;2023-08-20T01:37:02;18.17;;;16.13;;
48767;SDS011;34933;40.968;14.538;2023-08-20T01:39:47;15.80;;;14.18;;
48767;SDS011;34933;40.968;14.538;2023-08-20T01:42:33;18.48;;;16.00;;
48767;SDS011;34933;40.968;14.538;2023-08-20T01:45:18;25.55;;;16.45;;
48767;SDS011;34933;40.968;14.538;2023-08-20T01:48:03;18.20;;;15.60;;
48767;SDS011;34933;40.968;14.538;2023-08-20T01:50:48;16.77;;;15.18;;
48767;SDS011;34933;40.968;14.538;2023-08-20T01:53:32;15.30;;;13.93;;
48767;SDS011;34933;40.968;14.538;2023-08-20T01:56:18;15.43;;;13.60;;
48767;SDS011;34933;40.968;14.538;2023-08-20T01:59:03;14.32;;;13.05;;
48767;SDS011;34933;40.968;14.538;2023-08-20T02:01:48;14.65;;;13.18;;
48767;SDS011;34933;40.968;14.538;2023-08-20T02:04:33;13.45;;;11.98;;
48767;SDS011;34933;40.968;14.538;2023-08-20T02:07:17;12.98;;;11.77;;
48767;SDS011;34933;40.968;14.538;2023-08-20T02:10:04;13.98;;;12.65;;
48767;SDS011;34933;40.968;14.538;2023-08-20T02:12:49;14.60;;;13.20;;
48767;SDS011;34933;40.968;14.538;2023-08-20T02:15:34;16.00;;;12.77;;
48767;SDS011;34933;40.968;14.538;2023-08-20T02:18:18;16.75;;;13.65;;
48767;SDS011;34933;40.968;14.538;2023-08-20T02:21:03;13.15;;;12.05;;
48767;SDS011;34933;40.968;14.538;2023-08-20T02:23:48;12.50;;;11.43;;
48767;SDS011;34933;40.968;14.538;2023-08-20T02:26:32;14.13;;;12.68;;
48767;SDS011;34933;40.968;14.538;2023-08-20T02:29:17;12.98;;;11.35;;
48767;SDS011;34933;40.968;14.538;2023-08-20T02:32:02;15.35;;;11.32;;
48767;SDS011;34933;40.968;14.538;2023-08-20T02:34:51;12.77;;;11.40;;
48767;SDS011;34933;40.968;14.538;2023-08-20T02:37:36;13.50;;;12.05;;
48767;SDS011;34933;40.968;14.538;2023-08-20T02:40:21;13.55;;;10.80;;
48767;SDS011;34933;40.968;14.538;2023-08-20T02:43:06;13.40;;;11.77;;
48767;SDS011;34933;40.968;14.538;2023-08-20T02:45:51;11.85;;;10.65;;
48767;SDS011;34933;40.968;14.538;2023-08-20T02:48:35;13.70;;;11.57;;
48767;SDS011;34933;40.968;14.538;2023-08-20T02:51:20;11.60;;;10.48;;
48767;SDS011;34933;40.968;14.538;2023-08-20T02:54:06;13.02;;;11.68;;
48767;SDS011;34933;40.968;14.538;2023-08-20T02:56:51;12.23;;;10.95;;
48767;SDS011;34933;40.968;14.538;2023-08-20T02:59:35;11.70;;;10.50;;
48767;SDS011;34933;40.968;14.538;2023-08-20T03:02:20;11.35;;;10.25;;
48767;SDS011;34933;40.968;14.538;2023-08-20T03:05:06;11.60;;;10.35;;
48767;SDS011;34933;40.968;14.538;2023-08-20T03:07:52;11.50;;;10.43;;
48767;SDS011;34933;40.968;14.538;2023-08-20T03:10:37;13.15;;;11.45;;
48767;SDS011;34933;40.968;14.538;2023-08-20T03:13:22;10.82;;;9.77;;
48767;SDS011;34933;40.968;14.538;2023-08-20T03:16:07;10.07;;;9.07;;
48767;SDS011;34933;40.968;14.538;2023-08-20T03:18:51;9.90;;;9.07;;
48767;SDS011;34933;40.968;14.538;2023-08-20T03:21:36;11.95;;;10.43;;
48767;SDS011;34933;40.968;14.538;2023-08-20T03:24:21;14.13;;;10.35;;
48767;SDS011;34933;40.968;14.538;2023-08-20T03:27:06;10.55;;;9.57;;
48767;SDS011;34933;40.968;14.538;2023-08-20T03:29:51;11.30;;;10.15;;
48767;SDS011;34933;40.968;14.538;2023-08-20T03:32:36;10.82;;;9.88;;
48767;SDS011;34933;40.968;14.538;2023-08-20T03:35:22;11.00;;;9.90;;
48767;SDS011;34933;40.968;14.538;2023-08-20T03:38:06;11.05;;;9.98;;
48767;SDS011;34933;40.968;14.538;2023-08-20T03:40:52;12.23;;;9.98;;
48767;SDS011;34933;40.968;14.538;2023-08-20T03:43:38;10.93;;;10.00;;
48767;SDS011;34933;40.968;14.538;2023-08-20T03:46:22;10.88;;;9.98;;
48767;SDS011;34933;40.968;14.538;2023-08-20T03:49:08;11.23;;;10.07;;
48767;SDS011;34933;40.968;14.538;2023-08-20T03:51:52;10.65;;;9.70;;
48767;SDS011;34933;40.968;14.538;2023-08-20T03:54:37;13.68;;;11.10;;
48767;SDS011;34933;40.968;14.538;2023-08-20T03:57:21;11.18;;;10.02;;
48767;SDS011;34933;40.968;14.538;2023-08-20T04:00:06;13.02;;;11.65;;
48767;SDS011;34933;40.968;14.538;2023-08-20T04:03:03;12.30;;;10.93;;
48767;SDS011;34933;40.968;14.538;2023-08-20T04:05:49;16.50;;;12.50;;
48767;SDS011;34933;40.968;14.538;2023-08-20T04:08:34;10.80;;;9.82;;
48767;SDS011;34933;40.968;14.538;2023-08-20T04:11:19;13.25;;;10.43;;
48767;SDS011;34933;40.968;14.538;2023-08-20T04:14:03;12.18;;;10.95;;
48767;SDS011;34933;40.968;14.538;2023-08-20T04:16:49;12.50;;;11.15;;
48767;SDS011;34933;40.968;14.538;2023-08-20T04:19:33;12.80;;;11.68;;
48767;SDS011;34933;40.968;14.538;2023-08-20T04:22:18;12.68;;;11.38;;
48767;SDS011;34933;40.968;14.538;2023-08-20T04:25:03;11.65;;;10.65;;
48767;SDS011;34933;40.968;14.538;2023-08-20T04:27:48;12.73;;;11.43;;
48767;SDS011;34933;40.968;14.538;2023-08-20T04:30:36;12.40;;;11.10;;
48767;SDS011;34933;40.968;14.538;2023-08-20T04:33:22;13.18;;;11.25;;
48767;SDS011;34933;40.968;14.538;2023-08-20T04:36:07;14.52;;;12.07;;
48767;SDS011;34933;40.968;14.538;2023-08-20T04:38:52;19.20;;;12.52;;
48767;SDS011;34933;40.968;14.538;2023-08-20T04:41:36;13.80;;;12.32;;
48767;SDS011;34933;40.968;14.538;2023-08-20T04:44:21;12.45;;;11.20;;
48767;SDS011;34933;40.968;14.538;2023-08-20T04:47:10;12.93;;;11.63;;
48767;SDS011;34933;40.968;14.538;2023-08-20T04:49:57;12.65;;;11.52;;
48767;SDS011;34933;40.968;14.538;2023-08-20T04:52:42;14.05;;;12.70;;
48767;SDS011;34933;40.968;14.538;2023-08-20T04:55:27;13.48;;;12.07;;
48767;SDS011;34933;40.968;14.538;2023-08-20T04:58:12;13.45;;;12.25;;
48767;SDS011;34933;40.968;14.538;2023-08-20T05:00:57;12.30;;;11.10;;
48767;SDS011;34933;40.968;14.538;2023-08-20T05:03:42;13.32;;;11.80;;
48767;SDS011;34933;40.968;14.538;2023-08-20T05:06:26;13.63;;;12.00;;
48767;SDS011;34933;40.968;14.538;2023-08-20T05:09:11;14.30;;;11.60;;
48767;SDS011;34933;40.968;14.538;2023-08-20T05:11:56;13.25;;;11.95;;
48767;SDS011;34933;40.968;14.538;2023-08-20T05:14:42;13.40;;;11.95;;
48767;SDS011;34933;40.968;14.538;2023-08-20T05:17:27;14.90;;;13.23;;
48767;SDS011;34933;40.968;14.538;2023-08-20T05:20:11;14.93;;;12.35;;
48767;SDS011;34933;40.968;14.538;2023-08-20T05:22:56;13.13;;;11.93;;
48767;SDS011;34933;40.968;14.538;2023-08-20T05:25:41;12.60;;;11.45;;
48767;SDS011;34933;40.968;14.538;2023-08-20T05:28:26;14.38;;;11.73;;
48767;SDS011;34933;40.968;14.538;2023-08-20T05:31:11;14.02;;;11.63;;
48767;SDS011;34933;40.968;14.538;2023-08-20T05:33:56;15.30;;;13.38;;
48767;SDS011;34933;40.968;14.538;2023-08-20T05:36:41;11.90;;;10.88;;
48767;SDS011;34933;40.968;14.538;2023-08-20T05:39:26;12.00;;;10.95;;
48767;SDS011;34933;40.968;14.538;2023-08-20T05:42:11;14.27;;;12.77;;
48767;SDS011;34933;40.968;14.538;2023-08-20T05:45:00;12.93;;;11.73;;
48767;SDS011;34933;40.968;14.538;2023-08-20T05:47:46;14.70;;;12.43;;
48767;SDS011;34933;40.968;14.538;2023-08-20T05:50:30;13.75;;;12.27;;
48767;SDS011;34933;40.968;14.538;2023-08-20T05:53:15;13.70;;;12.30;;
48767;SDS011;34933;40.968;14.538;2023-08-20T05:56:01;15.68;;;12.32;;
48767;SDS011;34933;40.968;14.538;2023-08-20T05:58:45;13.93;;;12.38;;
48767;SDS011;34933;40.968;14.538;2023-08-20T06:01:30;13.88;;;12.52;;
48767;SDS011;34933;40.968;14.538;2023-08-20T06:04:15;14.05;;;12.27;;
48767;SDS011;34933;40.968;14.538;2023-08-20T06:06:59;14.70;;;13.32;;
48767;SDS011;34933;40.968;14.538;2023-08-20T06:09:44;16.02;;;13.40;;
48767;SDS011;34933;40.968;14.538;2023-08-20T06:12:29;14.63;;;13.13;;
48767;SDS011;34933;40.968;14.538;2023-08-20T06:15:14;16.30;;;13.00;;
48767;SDS011;34933;40.968;14.538;2023-08-20T06:17:58;14.20;;;12.90;;
48767;SDS011;34933;40.968;14.538;2023-08-20T06:20:43;13.50;;;12.05;;
48767;SDS011;34933;40.968;14.538;2023-08-20T06:23:27;13.10;;;11.98;;
48767;SDS011;34933;40.968;14.538;2023-08-20T06:26:12;13.07;;;11.40;;
48767;SDS011;34933;40.968;14.538;2023-08-20T06:28:57;13.27;;;11.95;;
48767;SDS011;34933;40.968;14.538;2023-08-20T06:31:42;13.95;;;12.75;;
48767;SDS011;34933;40.968;14.538;2023-08-20T06:34:27;15.30;;;13.90;;
48767;SDS011;34933;40.968;14.538;2023-08-20T06:37:11;15.45;;;13.82;;
48767;SDS011;34933;40.968;14.538;2023-08-20T06:39:57;15.10;;;13.40;;
48767;SDS011;34933;40.968;14.538;2023-08-20T06:42:41;14.32;;;12.93;;
48767;SDS011;34933;40.968;14.538;2023-08-20T06:45:26;15.10;;;13.73;;
48767;SDS011;34933;40.968;14.538;2023-08-20T06:48:11;15.05;;;13.52;;
48767;SDS011;34933;40.968;14.538;2023-08-20T06:50:55;18.02;;;14.85;;
48767;SDS011;34933;40.968;14.538;2023-08-20T06:53:40;15.85;;;14.35;;
48767;SDS011;34933;40.968;14.538;2023-08-20T06:56:25;14.65;;;13.32;;
48767;SDS011;34933;40.968;14.538;2023-08-20T06:59:10;18.38;;;14.23;;
48767;SDS011;34933;40.968;14.538;2023-08-20T07:01:54;16.67;;;14.52;;
48767;SDS011;34933;40.968;14.538;2023-08-20T07:04:39;16.05;;;14.25;;
48767;SDS011;34933;40.968;14.538;2023-08-20T07:07:24;14.98;;;13.43;;
48767;SDS011;34933;40.968;14.538;2023-08-20T07:10:09;15.30;;;13.80;;
48767;SDS011;34933;40.968;14.538;2023-08-20T07:12:54;14.98;;;13.57;;
48767;SDS011;34933;40.968;14.538;2023-08-20T07:15:39;15.38;;;13.77;;
48767;SDS011;34933;40.968;14.538;2023-08-20T07:18:23;15.45;;;14.13;;
48767;SDS011;34933;40.968;14.538;2023-08-20T07:21:08;14.15;;;12.73;;
48767;SDS011;34933;40.968;14.538;2023-08-20T07:23:53;19.67;;;14.27;;
48767;SDS011;34933;40.968;14.538;2023-08-20T07:26:38;15.80;;;14.10;;
48767;SDS011;34933;40.968;14.538;2023-08-20T07:29:22;16.17;;;12.82;;
48767;SDS011;34933;40.968;14.538;2023-08-20T07:32:08;21.58;;;13.45;;
48767;SDS011;34933;40.968;14.538;2023-08-20T07:34:53;15.52;;;13.85;;
48767;SDS011;34933;40.968;14.538;2023-08-20T07:37:37;28.27;;;14.60;;
48767;SDS011;34933;40.968;14.538;2023-08-20T07:40:22;16.20;;;13.68;;
48767;SDS011;34933;40.968;14.538;2023-08-20T07:43:07;39.97;;;15.77;;
48767;SDS011;34933;40.968;14.538;2023-08-20T07:45:52;29.08;;;15.90;;
48767;SDS011;34933;40.968;14.538;2023-08-20T07:48:36;25.13;;;14.80;;
48767;SDS011;34933;40.968;14.538;2023-08-20T07:51:21;25.63;;;14.60;;
48767;SDS011;34933;40.968;14.538;2023-08-20T07:54:05;19.33;;;14.55;;
48767;SDS011;34933;40.968;14.538;2023-08-20T07:56:50;55.88;;;16.90;;
48767;SDS011;34933;40.968;14.538;2023-08-20T07:59:35;28.40;;;14.43;;
48767;SDS011;34933;40.968;14.538;2023-08-20T08:02:20;18.75;;;14.88;;
48767;SDS011;34933;40.968;14.538;2023-08-20T08:05:04;16.50;;;14.77;;
48767;SDS011;34933;40.968;14.538;2023-08-20T08:07:49;16.23;;;14.57;;
48767;SDS011;34933;40.968;14.538;2023-08-20T08:10:34;18.48;;;12.70;;
48767;SDS011;34933;40.968;14.538;2023-08-20T08:13:21;15.13;;;13.82;;
48767;SDS011;34933;40.968;14.538;2023-08-20T08:16:06;15.02;;;13.43;;
48767;SDS011;34933;40.968;14.538;2023-08-20T08:18:50;15.23;;;13.40;;
48767;SDS011;34933;40.968;14.538;2023-08-20T08:21:35;14.25;;;12.93;;
48767;SDS011;34933;40.968;14.538;2023-08-20T08:24:20;15.23;;;13.93;;
48767;SDS011;34933;40.968;14.538;2023-08-20T08:27:04;15.55;;;13.95;;
48767;SDS011;34933;40.968;14.538;2023-08-20T08:29:50;17.73;;;15.85;;
48767;SDS011;34933;40.968;14.538;2023-08-20T08:32:35;16.67;;;14.95;;
48767;SDS011;34933;40.968;14.538;2023-08-20T08:35:19;17.25;;;15.10;;
48767;SDS011;34933;40.968;14.538;2023-08-20T08:38:04;17.83;;;15.38;;
48767;SDS011;34933;40.968;14.538;2023-08-20T08:40:49;17.52;;;15.40;;
48767;SDS011;34933;40.968;14.538;2023-08-20T08:43:33;16.35;;;14.48;;
48767;SDS011;34933;40.968;14.538;2023-08-20T08:46:18;16.20;;;14.70;;
48767;SDS011;34933;40.968;14.538;2023-08-20T08:49:04;16.70;;;15.15;;
48767;SDS011;34933;40.968;14.538;2023-08-20T08:51:49;40.00;;;15.40;;
48767;SDS011;34933;40.968;14.538;2023-08-20T08:54:35;16.38;;;13.95;;
48767;SDS011;34933;40.968;14.538;2023-08-20T08:57:20;18.15;;;15.77;;
48767;SDS011;34933;40.968;14.538;2023-08-20T09:00:05;17.27;;;15.48;;
48767;SDS011;34933;40.968;14.538;2023-08-20T09:02:50;16.88;;;15.27;;
48767;SDS011;34933;40.968;14.538;2023-08-20T09:08:32;17.42;;;14.77;;
48767;SDS011;34933;40.968;14.538;2023-08-20T09:11:17;16.42;;;14.90;;
48767;SDS011;34933;40.968;14.538;2023-08-20T09:14:01;16.88;;;15.45;;
48767;SDS011;34933;40.968;14.538;2023-08-20T09:16:46;17.73;;;15.98;;
48767;SDS011;34933;40.968;14.538;2023-08-20T09:19:37;17.55;;;15.75;;
48767;SDS011;34933;40.968;14.538;2023-08-20T09:22:21;17.17;;;15.15;;
48767;SDS011;34933;40.968;14.538;2023-08-20T09:25:07;17.30;;;15.50;;
48767;SDS011;34933;40.968;14.538;2023-08-20T09:28:02;16.70;;;14.95;;
48767;SDS011;34933;40.968;14.538;2023-08-20T09:30:55;15.30;;;14.00;;
48767;SDS011;34933;40.968;14.538;2023-08-20T09:33:50;14.77;;;13.43;;
48767;SDS011;34933;40.968;14.538;2023-08-20T09:36:35;17.63;;;15.27;;
48767;SDS011;34933;40.968;14.538;2023-08-20T09:39:20;16.13;;;14.50;;
48767;SDS011;34933;40.968;14.538;2023-08-20T09:42:05;15.25;;;13.82;;
48767;SDS011;34933;40.968;14.538;2023-08-20T09:44:51;15.15;;;13.85;;
48767;SDS011;34933;40.968;14.538;2023-08-20T09:47:37;16.17;;;14.48;;
48767;SDS011;34933;40.968;14.538;2023-08-20T09:50:24;18.45;;;14.60;;
48767;SDS011;34933;40.968;14.538;2023-08-20T09:53:30;15.60;;;14.13;;
48767;SDS011;34933;40.968;14.538;2023-08-20T09:56:22;15.60;;;14.13;;
48767;SDS011;34933;40.968;14.538;2023-08-20T09:59:12;15.27;;;13.88;;
48767;SDS011;34933;40.968;14.538;2023-08-20T10:01:57;15.18;;;13.82;;
48767;SDS011;34933;40.968;14.538;2023-08-20T10:04:43;14.02;;;12.82;;
48767;SDS011;34933;40.968;14.538;2023-08-20T10:07:28;15.82;;;14.00;;
48767;SDS011;34933;40.968;14.538;2023-08-20T10:10:16;15.20;;;13.70;;
48767;SDS011;34933;40.968;14.538;2023-08-20T10:13:01;14.70;;;13.35;;
48767;SDS011;34933;40.968;14.538;2023-08-20T10:15:48;13.65;;;12.23;;
48767;SDS011;34933;40.968;14.538;2023-08-20T10:18:36;18.98;;;12.55;;
48767;SDS011;34933;40.968;14.538;2023-08-20T10:21:24;13.75;;;11.80;;
48767;SDS011;34933;40.968;14.538;2023-08-20T10:24:10;13.50;;;12.15;;
48767;SDS011;34933;40.968;14.538;2023-08-20T10:27:09;14.30;;;13.00;;
48767;SDS011;34933;40.968;14.538;2023-08-20T10:29:54;14.25;;;12.95;;
48767;SDS011;34933;40.968;14.538;2023-08-20T10:38:23;13.50;;;12.43;;
48767;SDS011;34933;40.968;14.538;2023-08-20T10:41:08;12.55;;;11.45;;
48767;SDS011;34933;40.968;14.538;2023-08-20T10:43:53;14.30;;;12.48;;
48767;SDS011;34933;40.968;14.538;2023-08-20T10:46:49;13.27;;;12.02;;
48767;SDS011;34933;40.968;14.538;2023-08-20T10:49:35;12.98;;;11.70;;
48767;SDS011;34933;40.968;14.538;2023-08-20T10:52:22;13.77;;;12.27;;
48767;SDS011;34933;40.968;14.538;2023-08-20T10:55:07;12.93;;;11.88;;
48767;SDS011;34933;40.968;14.538;2023-08-20T10:57:56;14.38;;;13.10;;
48767;SDS011;34933;40.968;14.538;2023-08-20T11:00:43;14.35;;;12.85;;
48767;SDS011;34933;40.968;14.538;2023-08-20T11:03:28;12.98;;;11.88;;
48767;SDS011;34933;40.968;14.538;2023-08-20T11:06:12;13.52;;;12.43;;
48767;SDS011;34933;40.968;14.538;2023-08-20T11:08:57;13.73;;;12.52;;
48767;SDS011;34933;40.968;14.538;2023-08-20T11:11:42;13.82;;;12.50;;
48767;SDS011;34933;40.968;14.538;2023-08-20T11:14:27;13.25;;;11.93;;
48767;SDS011;34933;40.968;14.538;2023-08-20T11:17:11;13.82;;;12.48;;
48767;SDS011;34933;40.968;14.538;2023-08-20T11:19:56;13.88;;;12.68;;
48767;SDS011;34933;40.968;14.538;2023-08-20T11:22:41;13.60;;;12.27;;
48767;SDS011;34933;40.968;14.538;2023-08-20T11:25:26;15.30;;;13.68;;
48767;SDS011;34933;40.968;14.538;2023-08-20T11:28:10;14.25;;;13.15;;
48767;SDS011;34933;40.968;14.538;2023-08-20T11:30:55;14.27;;;12.93;;
48767;SDS011;34933;40.968;14.538;2023-08-20T11:33:40;13.60;;;12.35;;
48767;SDS011;34933;40.968;14.538;2023-08-20T11:36:25;14.55;;;13.13;;
48767;SDS011;34933;40.968;14.538;2023-08-20T11:39:10;14.95;;;13.38;;
48767;SDS011;34933;40.968;14.538;2023-08-20T11:41:55;13.70;;;12.55;;
48767;SDS011;34933;40.968;14.538;2023-08-20T11:44:43;14.77;;;13.18;;
48767;SDS011;34933;40.968;14.538;2023-08-20T11:47:29;13.88;;;12.68;;
48767;SDS011;34933;40.968;14.538;2023-08-20T11:50:22;14.55;;;13.30;;
48767;SDS011;34933;40.968;14.538;2023-08-20T11:53:07;14.90;;;13.43;;
48767;SDS011;34933;40.968;14.538;2023-08-20T11:55:53;15.25;;;13.43;;
48767;SDS011;34933;40.968;14.538;2023-08-20T11:58:38;14.57;;;13.00;;
48767;SDS011;34933;40.968;14.538;2023-08-20T12:01:22;14.30;;;13.15;;
48767;SDS011;34933;40.968;14.538;2023-08-20T12:04:08;12.98;;;11.75;;
48767;SDS011;34933;40.968;14.538;2023-08-20T12:09:57;14.57;;;13.23;;
48767;SDS011;34933;40.968;14.538;2023-08-20T12:12:41;15.13;;;13.75;;
48767;SDS011;34933;40.968;14.538;2023-08-20T12:15:27;14.32;;;13.23;;
48767;SDS011;34933;40.968;14.538;2023-08-20T12:18:11;15.00;;;13.43;;
48767;SDS011;34933;40.968;14.538;2023-08-20T12:20:56;14.07;;;12.77;;
48767;SDS011;34933;40.968;14.538;2023-08-20T12:23:41;14.30;;;13.13;;
48767;SDS011;34933;40.968;14.538;2023-08-20T12:26:27;14.77;;;13.57;;
48767;SDS011;34933;40.968;14.538;2023-08-20T12:29:11;16.05;;;14.50;;
48767;SDS011;34933;40.968;14.538;2023-08-20T12:31:56;15.52;;;13.65;;
48767;SDS011;34933;40.968;14.538;2023-08-20T12:34:41;14.48;;;13.38;;
48767;SDS011;34933;40.968;14.538;2023-08-20T12:37:25;14.65;;;13.45;;
48767;SDS011;34933;40.968;14.538;2023-08-20T12:40:10;13.15;;;12.15;;
48767;SDS011;34933;40.968;14.538;2023-08-20T12:42:56;13.70;;;12.50;;
48767;SDS011;34933;40.968;14.538;2023-08-20T12:45:40;13.57;;;12.57;;
48767;SDS011;34933;40.968;14.538;2023-08-20T12:48:25;13.43;;;12.10;;
48767;SDS011;34933;40.968;14.538;2023-08-20T12:51:10;12.75;;;11.70;;
48767;SDS011;34933;40.968;14.538;2023-08-20T12:53:57;13.60;;;12.45;;
48767;SDS011;34933;40.968;14.538;2023-08-20T12:56:42;12.32;;;11.25;;
48767;SDS011;34933;40.968;14.538;2023-08-20T12:59:27;12.95;;;11.63;;
48767;SDS011;34933;40.968;14.538;2023-08-20T13:02:12;12.40;;;11.35;;
48767;SDS011;34933;40.968;14.538;2023-08-20T13:04:56;12.60;;;11.60;;
48767;SDS011;34933;40.968;14.538;2023-08-20T13:07:42;13.88;;;12.65;;
48767;SDS011;34933;40.968;14.538;2023-08-20T13:10:27;14.10;;;12.85;;
48767;SDS011;34933;40.968;14.538;2023-08-20T13:13:12;15.00;;;13.63;;
48767;SDS011;34933;40.968;14.538;2023-08-20T13:15:58;15.35;;;13.73;;
48767;SDS011;34933;40.968;14.538;2023-08-20T13:18:43;14.85;;;13.45;;
48767;SDS011;34933;40.968;14.538;2023-08-20T13:21:29;14.38;;;13.23;;
48767;SDS011;34933;40.968;14.538;2023-08-20T13:24:13;13.50;;;12.35;;
48767;SDS011;34933;40.968;14.538;2023-08-20T13:26:58;12.55;;;11.65;;
48767;SDS011;34933;40.968;14.538;2023-08-20T13:29:42;12.13;;;10.95;;
48767;SDS011;34933;40.968;14.538;2023-08-20T13:32:27;11.98;;;10.80;;
48767;SDS011;34933;40.968;14.538;2023-08-20T13:35:12;11.60;;;10.57;;
48767;SDS011;34933;40.968;14.538;2023-08-20T13:37:58;11.55;;;10.48;;
48767;SDS011;34933;40.968;14.538;2023-08-20T13:40:43;11.35;;;10.35;;
48767;SDS011;34933;40.968;14.538;2023-08-20T13:43:28;11.25;;;10.45;;
48767;SDS011;34933;40.968;14.538;2023-08-20T13:46:13;12.70;;;11.65;;
48767;SDS011;34933;40.968;14.538;2023-08-20T13:48:58;12.25;;;11.15;;
48767;SDS011;34933;40.968;14.538;2023-08-20T13:51:43;11.50;;;10.38;;
48767;SDS011;34933;40.968;14.538;2023-08-20T13:54:27;11.70;;;10.60;;
48767;SDS011;34933;40.968;14.538;2023-08-20T13:57:12;10.25;;;9.45;;
48767;SDS011;34933;40.968;14.538;2023-08-20T13:59:57;10.90;;;9.80;;
48767;SDS011;34933;40.968;14.538;2023-08-20T14:02:42;13.60;;;10.38;;
48767;SDS011;34933;40.968;14.538;2023-08-20T14:05:27;11.63;;;10.75;;
48767;SDS011;34933;40.968;14.538;2023-08-20T14:08:12;10.52;;;9.70;;
48767;SDS011;34933;40.968;14.538;2023-08-20T14:10:57;10.85;;;9.93;;
48767;SDS011;34933;40.968;14.538;2023-08-20T14:13:42;10.18;;;9.32;;
48767;SDS011;34933;40.968;14.538;2023-08-20T14:16:27;9.93;;;9.13;;
48767;SDS011;34933;40.968;14.538;2023-08-20T14:19:11;11.85;;;10.85;;
48767;SDS011;34933;40.968;14.538;2023-08-20T14:21:56;10.88;;;9.98;;
48767;SDS011;34933;40.968;14.538;2023-08-20T14:24:41;11.15;;;10.05;;
48767;SDS011;34933;40.968;14.538;2023-08-20T14:27:25;10.55;;;9.85;;
48767;SDS011;34933;40.968;14.538;2023-08-20T14:30:10;10.77;;;9.77;;
48767;SDS011;34933;40.968;14.538;2023-08-20T14:32:55;10.55;;;9.65;;
48767;SDS011;34933;40.968;14.538;2023-08-20T14:35:40;11.05;;;10.23;;
48767;SDS011;34933;40.968;14.538;2023-08-20T14:38:25;10.60;;;9.88;;
48767;SDS011;34933;40.968;14.538;2023-08-20T14:41:09;10.93;;;10.10;;
48767;SDS011;34933;40.968;14.538;2023-08-20T14:43:54;11.18;;;10.35;;
48767;SDS011;34933;40.968;14.538;2023-08-20T14:46:38;11.13;;;10.05;;
48767;SDS011;34933;40.968;14.538;2023-08-20T14:49:23;11.02;;;10.13;;
48767;SDS011;34933;40.968;14.538;2023-08-20T14:52:08;10.98;;;10.18;;
48767;SDS011;34933;40.968;14.538;2023-08-20T14:54:52;11.88;;;10.55;;
48767;SDS011;34933;40.968;14.538;2023-08-20T14:57:37;10.60;;;9.75;;
48767;SDS011;34933;40.968;14.538;2023-08-20T15:00:22;10.32;;;9.52;;
48767;SDS011;34933;40.968;14.538;2023-08-20T15:03:08;10.18;;;9.43;;
48767;SDS011;34933;40.968;14.538;2023-08-20T15:05:52;10.75;;;9.63;;
48767;SDS011;34933;40.968;14.538;2023-08-20T15:08:37;11.02;;;10.30;;
48767;SDS011;34933;40.968;14.538;2023-08-20T15:11:22;10.55;;;9.52;;
48767;SDS011;34933;40.968;14.538;2023-08-20T15:14:06;11.98;;;9.88;;
48767;SDS011;34933;40.968;14.538;2023-08-20T15:16:51;11.30;;;10.13;;
48767;SDS011;34933;40.968;14.538;2023-08-20T15:19:36;11.38;;;10.55;;
48767;SDS011;34933;40.968;14.538;2023-08-20T15:22:20;10.82;;;9.80;;
48767;SDS011;34933;40.968;14.538;2023-08-20T15:25:05;10.77;;;9.90;;
48767;SDS011;34933;40.968;14.538;2023-08-20T15:27:54;10.18;;;9.48;;
48767;SDS011;34933;40.968;14.538;2023-08-20T15:30:39;10.90;;;9.90;;
48767;SDS011;34933;40.968;14.538;2023-08-20T15:33:23;10.73;;;9.88;;
48767;SDS011;34933;40.968;14.538;2023-08-20T15:36:08;10.68;;;9.70;;
48767;SDS011;34933;40.968;14.538;2023-08-20T15:38:53;11.20;;;10.20;;
48767;SDS011;34933;40.968;14.538;2023-08-20T15:41:37;10.68;;;9.77;;
48767;SDS011;34933;40.968;14.538;2023-08-20T15:44:22;11.07;;;10.10;;
48767;SDS011;34933;40.968;14.538;2023-08-20T15:47:07;10.02;;;9.20;;
48767;SDS011;34933;40.968;14.538;2023-08-20T15:49:51;10.35;;;9.45;;
48767;SDS011;34933;40.968;14.538;2023-08-20T15:52:36;9.63;;;8.93;;
48767;SDS011;34933;40.968;14.538;2023-08-20T15:55:22;10.02;;;9.05;;
48767;SDS011;34933;40.968;14.538;2023-08-20T15:58:07;16.15;;;9.23;;
48767;SDS011;34933;40.968;14.538;2023-08-20T16:00:51;26.65;;;10.27;;
48767;SDS011;34933;40.968;14.538;2023-08-20T16:03:36;11.27;;;9.75;;
48767;SDS011;34933;40.968;14.538;2023-08-20T16:06:21;10.32;;;9.32;;
48767;SDS011;34933;40.968;14.538;2023-08-20T16:09:05;11.00;;;9.88;;
48767;SDS011;34933;40.968;14.538;2023-08-20T16:11:52;11.15;;;10.25;;
48767;SDS011;34933;40.968;14.538;2023-08-20T16:14:36;10.15;;;9.30;;